Terminal Aerodrome Forecast
Issued by NWS

Home | Current Version | Previous Version | Text Only | Print | Product List | Glossary On
Versions: 1 2 3 4 5 6 7 8 9 10 11 12 13 14 15 16 17 18 19 20
000
FTUS44 KLIX 292346
TAFHUM
TAF
KHUM 292346Z 3000/3024 14008KT P6SM BKN022 BKN030
     FM300500 15010KT P6SM BKN025
     FM300600 16010KT P6SM BKN015
     FM301200 18009KT 5SM -SHRA BKN025
      TEMPO 3014/3018 28020G30KT 2SM TSRA BKN025CB
     FM301800 19012KT 6SM -SHRA VCTS OVC040CB=

USA.gov is the U.S. government's official web portal to all federal, state and local government web resources and services.